Air Navigation Services of Czech Republic
Airport: LKPD Updated:  03.10.2022 10:59:32  UTC
 METAR LKPD 03.10. 11:00 ...
METAR LKPD 031100Z 29016KT 9999 BKN025 BKN050 13/08 Q1021 NOSIG RMK BLU BLU=
 TAF LKPD 03.10. 05:00 ...
TAF LKPD 030500Z 0306/0406 29017KT 9999 BKN040      TEMPO 0306/0317 30018G28KT      PROB40 TEMPO 0306/0406 30018G33KT 8000 SHRA SCT012 BKN020=